| time (UTC) | temp F | wind direction | speed MPH | gust MPH | rain 1hr in | rain 24hr in | rain mn in | humidity % | barometer mb |
| 20260509213104 | 68 | 44 | 10.0 | 25.0 | 0.00 | 0.05 | 0.05 | 39 | 1003.2 |
| 20260509211604 | 69 | 245 | 9.0 | 21.0 | 0.00 | 0.05 | 0.05 | 39 | 1003.1 |
| 20260509210101 | 69 | 288 | 3.0 | 18.0 | 0.00 | 0.05 | 0.05 | 43 | 1003.1 |
| 20260509204604 | 68 | 197 | 6.0 | 22.0 | 0.00 | 0.05 | 0.05 | 46 | 1003.2 |
| 20260509203058 | 67 | 327 | 2.0 | 17.0 | 0.00 | 0.05 | 0.05 | 44 | 1003.3 |
| 20260509201556 | 65 | 335 | 6.0 | 12.0 | 0.00 | 0.05 | 0.05 | 49 | 1003.7 |
| 20260509200057 | 64 | 257 | 4.0 | 16.0 | 0.00 | 0.05 | 0.05 | 51 | 1004.0 |
| 20260509194559 | 65 | 347 | 5.0 | 13.0 | 0.00 | 0.05 | 0.05 | 53 | 1004.0 |
| 20260509193100 | 65 | 319 | 6.0 | 19.0 | 0.00 | 0.05 | 0.05 | 53 | 1003.8 |
| 20260509191609 | 64 | 265 | 4.0 | 15.0 | 0.05 | 0.05 | 0.05 | 58 | 1003.7 |
| 20260509190100 | 63 | 155 | 1.0 | 7.0 | 0.05 | 0.05 | 0.05 | 79 | 1003.6 |
| 20260509184558 | 60 | 245 | 3.0 | 7.0 | 0.05 | 0.05 | 0.05 | 84 | 1003.4 |
| 20260509183101 | 60 | 0 | 3.0 | 17.0 | 0.05 | 0.05 | 0.05 | 73 | 1003.7 |
| 20260509181604 | 67 | 284 | 3.0 | 14.0 | 0.00 | 0.00 | 0.00 | 55 | 1003.1 |
| 20260509180100 | 70 | 265 | 7.0 | 16.0 | 0.00 | 0.00 | 0.00 | 49 | 1002.6 |
| 20260509174606 | 68 | 281 | 6.0 | 15.0 | 0.00 | 0.00 | 0.00 | 51 | 1002.9 |
| 20260509173112 | 67 | 320 | 4.0 | 20.0 | 0.00 | 0.00 | 0.00 | 53 | 1003.2 |
| 20260509171604 | 69 | 304 | 3.0 | 12.0 | 0.00 | 0.00 | 0.00 | 52 | 1003.2 |
| 20260509170100 | 69 | 179 | 2.0 | 9.0 | 0.00 | 0.00 | 0.00 | 53 | 1002.9 |
| 20260509164600 | 68 | 213 | 4.0 | 12.0 | 0.00 | 0.00 | 0.00 | 53 | 1003.0 |
| 20260509163108 | 67 | 153 | 3.0 | 14.0 | 0.00 | 0.00 | 0.00 | 58 | 1003.1 |
| 20260509161606 | 67 | 217 | 4.0 | 16.0 | 0.00 | 0.00 | 0.00 | 58 | 1003.3 |
| 20260509160101 | 66 | 175 | 3.0 | 10.0 | 0.00 | 0.00 | 0.00 | 60 | 1003.4 |
| 20260509154609 | 65 | 219 | 3.0 | 14.0 | 0.00 | 0.00 | 0.00 | 60 | 1003.5 |
| 20260509153058 | 64 | 202 | 5.0 | 18.0 | 0.00 | 0.00 | 0.00 | 65 | 1003.7 |
| 20260509151601 | 63 | 213 | 6.0 | 19.0 | 0.00 | 0.00 | 0.00 | 68 | 1003.6 |
| 20260509150058 | 62 | 179 | 4.0 | 12.0 | 0.00 | 0.00 | 0.00 | 72 | 1003.9 |
| 20260509144611 | 60 | 192 | 3.0 | 15.0 | 0.00 | 0.00 | 0.00 | 74 | 1003.9 |
| 20260509143058 | 58 | 92 | 3.0 | 11.0 | 0.00 | 0.00 | 0.00 | 82 | 1004.0 |
| 20260509141556 | 56 | 248 | 3.0 | 12.0 | 0.00 | 0.00 | 0.00 | 87 | 1004.3 |
| 20260509140114 | 55 | 119 | 3.0 | 9.0 | 0.00 | 0.00 | 0.00 | 91 | 1004.3 |
| 20260509134557 | 53 | 360 | 2.0 | 9.0 | 0.00 | 0.00 | 0.00 | 94 | 1004.6 |
| 20260509133103 | 52 | 130 | 2.0 | 9.0 | 0.00 | 0.00 | 0.00 | 95 | 1004.8 |
| 20260509131603 | 52 | 360 | 3.0 | 11.0 | 0.00 | 0.00 | 0.00 | 95 | 1005.1 |
| 20260509130107 | 51 | 213 | 4.0 | 10.0 | 0.00 | 0.00 | 0.00 | 95 | 1005.4 |
| 20260509124609 | 51 | 134 | 2.0 | 8.0 | 0.00 | 0.00 | 0.00 | 96 | 1005.4 |
| 20260509123059 | 50 | 188 | 0.0 | 6.0 | 0.00 | 0.00 | 0.00 | 96 | 1005.5 |
| 20260509121607 | 50 | 360 | 2.0 | 8.0 | 0.00 | 0.00 | 0.00 | 95 | 1005.4 |
| 20260509120057 | 49 | 0 | 2.0 | 7.0 | 0.00 | 0.00 | 0.00 | 95 | 1005.4 |
| 20260509114556 | 49 | 180 | 2.0 | 6.0 | 0.00 | 0.00 | 0.00 | 95 | 1005.6 |
| 20260509113058 | 48 | 360 | 2.0 | 5.0 | 0.00 | 0.00 | 0.00 | 95 | 1005.5 |
| 20260509111607 | 47 | 360 | 2.0 | 6.0 | 0.00 | 0.00 | 0.00 | 95 | 1005.4 |
| 20260509110056 | 47 | 360 | 1.0 | 5.0 | 0.00 | 0.00 | 0.00 | 95 | 1005.6 |
| 20260509104556 | 46 | 360 | 1.0 | 3.0 | 0.00 | 0.00 | 0.00 | 94 | 1005.4 |
| 20260509103103 | 45 | 360 | 1.0 | 3.0 | 0.00 | 0.00 | 0.00 | 93 | 1005.5 |
| 20260509101555 | 45 | 204 | 1.0 | 2.0 | 0.00 | 0.00 | 0.00 | 94 | 1005.6 |
| 20260509100100 | 45 | 204 | 0.0 | 1.0 | 0.00 | 0.00 | 0.00 | 93 | 1005.8 |
| 20260509094557 | 45 | 204 | 0.0 | 2.0 | 0.00 | 0.00 | 0.00 | 93 | 1005.8 |
| 20260509093057 | 45 | 360 | 1.0 | 2.0 | 0.00 | 0.00 | 0.00 | 92 | 1005.9 |
| 20260509091558 | 45 | 0 | 0.0 | 1.0 | 0.00 | 0.00 | 0.00 | 92 | 1006.0 |
| 20260509090106 | 45 | 0 | 0.0 | 0.0 | 0.00 | 0.00 | 0.00 | 92 | 1005.8 |
| 20260509084600 | 45 | 0 | 0.0 | 0.0 | 0.00 | 0.00 | 0.00 | 91 | 1005.9 |
| 20260509083101 | 45 | 0 | 0.0 | 0.0 | 0.00 | 0.00 | 0.00 | 91 | 1005.9 |
| 20260509081557 | 45 | 0 | 0.0 | 2.0 | 0.00 | 0.00 | 0.00 | 91 | 1006.0 |
| 20260509080100 | 45 | 204 | 0.0 | 2.0 | 0.00 | 0.00 | 0.00 | 90 | 1006.1 |
| 20260509074601 | 45 | 0 | 1.0 | 2.0 | 0.00 | 0.00 | 0.00 | 90 | 1006.2 |
| 20260509073059 | 45 | 204 | 1.0 | 2.0 | 0.00 | 0.00 | 0.00 | 89 | 1006.3 |
| 20260509071555 | 45 | 0 | 0.0 | 1.0 | 0.00 | 0.00 | 0.00 | 88 | 1006.5 |
| 20260509070058 | 45 | 204 | 0.0 | 2.0 | 0.00 | 0.00 | 0.00 | 88 | 1006.6 |
| 20260509064556 | 45 | 0 | 0.0 | 2.0 | 0.00 | 0.00 | 0.00 | 86 | 1006.7 |
| 20260509063106 | 45 | 204 | 0.0 | 1.0 | 0.00 | 0.00 | 0.00 | 86 | 1006.8 |
| 20260509061557 | 46 | 0 | 0.0 | 2.0 | 0.00 | 0.00 | 0.00 | 85 | 1007.0 |
| 20260509060104 | 46 | 204 | 0.0 | 2.0 | 0.00 | 0.00 | 0.00 | 85 | 1007.2 |
| 20260509054613 | 45 | 204 | 0.0 | 2.0 | 0.00 | 0.00 | 0.00 | 83 | 1007.3 |
| 20260509053134 | 45 | 0 | 0.0 | 1.0 | 0.00 | 0.00 | 0.00 | 80 | 1007.4 |
| 20260509051556 | 45 | 360 | 0.0 | 2.0 | 0.00 | 0.00 | 0.00 | 78 | 1007.5 |
| 20260509050056 | 46 | 204 | 1.0 | 2.0 | 0.00 | 0.00 | 0.00 | 75 | 1007.6 |
| 20260509044555 | 46 | 0 | 0.0 | 2.0 | 0.00 | 0.00 | 0.00 | 73 | 1007.7 |
| 20260509043107 | 47 | 204 | 0.0 | 3.0 | 0.00 | 0.00 | 0.00 | 72 | 1007.8 |
| 20260509041604 | 47 | 0 | 0.0 | 2.0 | 0.00 | 0.00 | 0.00 | 71 | 1007.9 |
| 20260509040114 | 48 | 204 | 0.0 | 2.0 | 0.00 | 0.00 | 0.00 | 68 | 1008.0 |
| 20260509034605 | 48 | 0 | 0.0 | 2.0 | 0.00 | 0.00 | 0.00 | 65 | 1008.0 |
| 20260509033056 | 49 | 0 | 0.0 | 2.0 | 0.00 | 0.00 | 0.00 | 62 | 1008.0 |
| 20260509031606 | 49 | 0 | 0.0 | 2.0 | 0.00 | 0.00 | 0.00 | 60 | 1008.1 |
| 20260509030058 | 50 | 0 | 0.0 | 1.0 | 0.00 | 0.00 | 0.00 | 58 | 1008.2 |
| 20260509024559 | 50 | 360 | 0.0 | 2.0 | 0.00 | 0.00 | 0.00 | 58 | 1008.3 |
| 20260509023057 | 51 | 204 | 0.0 | 2.0 | 0.00 | 0.00 | 0.00 | 56 | 1008.3 |
| 20260509021603 | 52 | 0 | 0.0 | 1.0 | 0.00 | 0.00 | 0.00 | 54 | 1008.3 |
| 20260509014602 | 54 | 0 | 0.0 | 2.0 | 0.00 | 0.00 | 0.00 | 50 | 1008.1 |
| 20260509013107 | 55 | 0 | 0.0 | 2.0 | 0.00 | 0.00 | 0.00 | 46 | 1007.9 |
| 20260509011555 | 56 | 0 | 0.0 | 1.0 | 0.00 | 0.00 | 0.00 | 43 | 1007.7 |
| 20260509010058 | 58 | 0 | 0.0 | 1.0 | 0.00 | 0.00 | 0.00 | 42 | 1007.4 |
| 20260509004601 | 59 | 0 | 0.0 | 3.0 | 0.00 | 0.00 | 0.00 | 39 | 1007.3 |
| 20260509003058 | 60 | 264 | 1.0 | 4.0 | 0.00 | 0.00 | 0.00 | 39 | 1007.2 |
| 20260509001555 | 61 | 286 | 0.0 | 6.0 | 0.00 | 0.00 | 0.00 | 41 | 1007.0 |
| 20260509000056 | 61 | 211 | 2.0 | 8.0 | 0.00 | 0.00 | 0.00 | 38 | 1007.0 |
| 20260508234559 | 61 | 0 | 1.0 | 9.0 | 0.00 | 0.00 | 0.00 | 41 | 1007.1 |
| 20260508233110 | 61 | 271 | 2.0 | 7.0 | 0.00 | 0.00 | 0.00 | 40 | 1007.1 |
| 20260508231559 | 62 | 261 | 1.0 | 13.0 | 0.00 | 0.00 | 0.00 | 40 | 1007.0 |
| 20260508230104 | 62 | 252 | 4.0 | 12.0 | 0.00 | 0.00 | 0.00 | 39 | 1007.1 |
| 20260508224611 | 63 | 271 | 4.0 | 10.0 | 0.00 | 0.00 | 0.00 | 38 | 1007.1 |
| 20260508223102 | 63 | 286 | 1.0 | 6.0 | 0.00 | 0.00 | 0.00 | 38 | 1007.2 |
| 20260508221559 | 63 | 304 | 2.0 | 8.0 | 0.00 | 0.00 | 0.00 | 39 | 1007.4 |
| 20260508220100 | 64 | 0 | 4.0 | 11.0 | 0.00 | 0.00 | 0.00 | 38 | 1007.4 |
| 20260508214608 | 64 | 289 | 2.0 | 11.0 | 0.00 | 0.00 | 0.00 | 36 | 1007.4 |